Terminal Aerodrome Forecast
Issued by NWS

Home | Current Version | Previous Version | Text Only | Print | Product List | Glossary On
Versions: 1 2 3 4 5 6 7 8 9 10 11 12 13 14 15 16 17 18 19
000
FTUS43 KSGF 201722
TAFBBG
TAF
KBBG 201722Z 2018/2118 17011G20KT 6SM -SHRA BR BKN015 OVC050
      TEMPO 2019/2022 SCT015
     FM202200 19005KT P6SM VCSH SCT015 OVC060
     FM210900 VRB04KT 6SM BR BKN015
      TEMPO 2110/2114 3SM BR BKN008=

USA.gov is the U.S. government's official web portal to all federal, state and local government web resources and services.